Saint George's, Canada
Current Conditions -  °F | °C
As of 6:00 AM on Tuesday 21 Oct 2014 (Local Time) from CYJT Reporting Station
Overcast Overcast  
Wind Chill: 37°   Ceiling: 2500
Heat Index: 46°   Visibility: 15mi
Dew Point: 37°   Wind: 31mph
Humidity: 71%   Direction: 260°W
Pressure: 29.82"   Gusts: 40mph
Location:  48.43°N, 58.5°W
Report Text: CYJT 210800Z 26027G35KT 15SM OVC025 08/03 A2982 RMK SC8 SLP097
Loading
Personal Weather Stations






























Interactive Weather Map
Tropical Storm Tracking
New forecast layout! Learn more

10-Day Weather Forecast

Advertisements
Track Severe Weather on mobile